sensor_id;sensor_type;location;lat;lon;timestamp;pressure;altitude;pressure_sealevel;temperature
75431;BMP280;64127;51.488;5.462;2023-07-31T00:02:18;100880.97;;;19.18
75431;BMP280;64127;51.488;5.462;2023-07-31T00:04:51;100879.13;;;19.11
75431;BMP280;64127;51.488;5.462;2023-07-31T00:07:23;100876.50;;;19.10
75431;BMP280;64127;51.488;5.462;2023-07-31T00:09:55;100888.00;;;19.12
75431;BMP280;64127;51.488;5.462;2023-07-31T00:12:28;100884.47;;;19.14
75431;BMP280;64127;51.488;5.462;2023-07-31T00:15:00;100897.78;;;19.16
75431;BMP280;64127;51.488;5.462;2023-07-31T00:17:32;100882.72;;;19.13
75431;BMP280;64127;51.488;5.462;2023-07-31T00:20:05;100850.72;;;18.97
75431;BMP280;64127;51.488;5.462;2023-07-31T00:22:37;100884.47;;;19.11
75431;BMP280;64127;51.488;5.462;2023-07-31T00:25:09;100882.69;;;19.12
75431;BMP280;64127;51.488;5.462;2023-07-31T00:27:41;100882.69;;;19.07
75431;BMP280;64127;51.488;5.462;2023-07-31T00:30:16;100881.81;;;19.10
75431;BMP280;64127;51.488;5.462;2023-07-31T00:32:48;100863.19;;;19.07
75431;BMP280;64127;51.488;5.462;2023-07-31T00:35:20;100869.38;;;19.09
75431;BMP280;64127;51.488;5.462;2023-07-31T00:37:52;100874.72;;;19.12
75431;BMP280;64127;51.488;5.462;2023-07-31T00:40:24;100866.75;;;19.10
75431;BMP280;64127;51.488;5.462;2023-07-31T00:42:56;100877.44;;;19.16
75431;BMP280;64127;51.488;5.462;2023-07-31T00:45:31;100869.41;;;19.15
75431;BMP280;64127;51.488;5.462;2023-07-31T00:48:04;100873.84;;;19.10
75431;BMP280;64127;51.488;5.462;2023-07-31T00:50:39;100872.97;;;19.11
75431;BMP280;64127;51.488;5.462;2023-07-31T00:53:11;100876.50;;;19.13
75431;BMP280;64127;51.488;5.462;2023-07-31T00:55:44;100862.31;;;19.09
75431;BMP280;64127;51.488;5.462;2023-07-31T00:58:16;100865.91;;;19.16
75431;BMP280;64127;51.488;5.462;2023-07-31T01:00:49;100867.66;;;19.18
75431;BMP280;64127;51.488;5.462;2023-07-31T01:03:22;100867.66;;;19.18
75431;BMP280;64127;51.488;5.462;2023-07-31T01:12:14;100853.44;;;19.07
75431;BMP280;64127;51.488;5.462;2023-07-31T01:17:35;100851.66;;;19.08
75431;BMP280;64127;51.488;5.462;2023-07-31T01:20:12;100858.78;;;19.12
75431;BMP280;64127;51.488;5.462;2023-07-31T01:26:12;100861.38;;;19.00
75431;BMP280;64127;51.488;5.462;2023-07-31T01:31:49;100847.22;;;19.08
75431;BMP280;64127;51.488;5.462;2023-07-31T01:34:23;100858.78;;;19.12
75431;BMP280;64127;51.488;5.462;2023-07-31T01:36:56;100849.88;;;19.08
75431;BMP280;64127;51.488;5.462;2023-07-31T01:39:30;100852.53;;;19.08
75431;BMP280;64127;51.488;5.462;2023-07-31T01:42:02;100846.31;;;19.05
75431;BMP280;64127;51.488;5.462;2023-07-31T01:44:34;100846.34;;;19.08
75431;BMP280;64127;51.488;5.462;2023-07-31T01:47:06;100844.59;;;19.07
75431;BMP280;64127;51.488;5.462;2023-07-31T01:49:38;100843.66;;;19.05
75431;BMP280;64127;51.488;5.462;2023-07-31T01:52:10;100847.19;;;18.99
75431;BMP280;64127;51.488;5.462;2023-07-31T01:54:42;100849.84;;;19.02
75431;BMP280;64127;51.488;5.462;2023-07-31T01:57:14;100841.84;;;19.01
75431;BMP280;64127;51.488;5.462;2023-07-31T01:59:46;100833.88;;;19.01
75431;BMP280;64127;51.488;5.462;2023-07-31T02:02:18;100837.47;;;19.03
75431;BMP280;64127;51.488;5.462;2023-07-31T02:04:50;100843.66;;;19.02
75431;BMP280;64127;51.488;5.462;2023-07-31T02:07:22;100825.00;;;18.96
75431;BMP280;64127;51.488;5.462;2023-07-31T02:09:54;100807.25;;;18.89
75431;BMP280;64127;51.488;5.462;2023-07-31T02:12:26;100823.25;;;18.98
75431;BMP280;64127;51.488;5.462;2023-07-31T02:14:58;100814.41;;;18.99
75431;BMP280;64127;51.488;5.462;2023-07-31T02:17:30;100802.84;;;18.95
75431;BMP280;64127;51.488;5.462;2023-07-31T02:20:02;100806.41;;;18.97
75431;BMP280;64127;51.488;5.462;2023-07-31T02:22:34;100817.03;;;18.96
75431;BMP280;64127;51.488;5.462;2023-07-31T02:25:07;100811.69;;;18.90
75431;BMP280;64127;51.488;5.462;2023-07-31T02:27:39;100801.94;;;18.89
75431;BMP280;64127;51.488;5.462;2023-07-31T02:30:11;100793.09;;;18.91
75431;BMP280;64127;51.488;5.462;2023-07-31T02:32:43;100799.28;;;18.92
75431;BMP280;64127;51.488;5.462;2023-07-31T02:35:15;100793.06;;;18.88
75431;BMP280;64127;51.488;5.462;2023-07-31T02:37:47;100790.41;;;18.88
75431;BMP280;64127;51.488;5.462;2023-07-31T02:40:20;100801.97;;;18.90
75431;BMP280;64127;51.488;5.462;2023-07-31T02:42:52;100783.34;;;18.90
75431;BMP280;64127;51.488;5.462;2023-07-31T02:45:24;100782.44;;;18.87
75431;BMP280;64127;51.488;5.462;2023-07-31T02:47:56;100784.19;;;18.85
75431;BMP280;64127;51.488;5.462;2023-07-31T02:50:28;100782.41;;;18.84
75431;BMP280;64127;51.488;5.462;2023-07-31T02:53:00;100788.59;;;18.84
75431;BMP280;64127;51.488;5.462;2023-07-31T02:55:32;100787.75;;;18.85
75431;BMP280;64127;51.488;5.462;2023-07-31T02:58:04;100781.53;;;18.88
75431;BMP280;64127;51.488;5.462;2023-07-31T03:00:43;100781.53;;;18.85
75431;BMP280;64127;51.488;5.462;2023-07-31T03:03:15;100782.41;;;18.84
75431;BMP280;64127;51.488;5.462;2023-07-31T03:05:47;100770.94;;;18.86
75431;BMP280;64127;51.488;5.462;2023-07-31T03:08:20;100775.38;;;18.89
75431;BMP280;64127;51.488;5.462;2023-07-31T03:10:52;100786.00;;;18.89
75431;BMP280;64127;51.488;5.462;2023-07-31T03:13:24;100778.03;;;18.89
75431;BMP280;64127;51.488;5.462;2023-07-31T03:15:56;100767.41;;;18.92
75431;BMP280;64127;51.488;5.462;2023-07-31T03:18:28;100777.19;;;18.96
75431;BMP280;64127;51.488;5.462;2023-07-31T03:21:00;100782.47;;;18.93
75431;BMP280;64127;51.488;5.462;2023-07-31T03:23:32;100774.47;;;18.91
75431;BMP280;64127;51.488;5.462;2023-07-31T03:26:07;100777.13;;;18.91
75431;BMP280;64127;51.488;5.462;2023-07-31T03:28:39;100762.94;;;18.88
75431;BMP280;64127;51.488;5.462;2023-07-31T03:31:11;100774.47;;;18.88
75431;BMP280;64127;51.488;5.462;2023-07-31T03:33:44;100770.06;;;18.89
75431;BMP280;64127;51.488;5.462;2023-07-31T03:36:16;100762.97;;;18.91
75431;BMP280;64127;51.488;5.462;2023-07-31T03:38:48;100757.66;;;18.91
75431;BMP280;64127;51.488;5.462;2023-07-31T03:41:20;100752.34;;;18.91
75431;BMP280;64127;51.488;5.462;2023-07-31T03:43:52;100759.44;;;18.92
75431;BMP280;64127;51.488;5.462;2023-07-31T03:46:25;100747.06;;;18.94
75431;BMP280;64127;51.488;5.462;2023-07-31T03:48:57;100736.38;;;18.91
75431;BMP280;64127;51.488;5.462;2023-07-31T03:51:29;100744.41;;;18.98
75431;BMP280;64127;51.488;5.462;2023-07-31T03:54:01;100746.22;;;19.04
75431;BMP280;64127;51.488;5.462;2023-07-31T03:56:33;100732.00;;;18.97
75431;BMP280;64127;51.488;5.462;2023-07-31T03:59:07;100732.94;;;19.07
75431;BMP280;64127;51.488;5.462;2023-07-31T04:01:39;100733.84;;;19.07
75431;BMP280;64127;51.488;5.462;2023-07-31T04:04:11;100730.28;;;19.08
75431;BMP280;64127;51.488;5.462;2023-07-31T04:06:43;100725.88;;;19.09
75431;BMP280;64127;51.488;5.462;2023-07-31T04:09:15;100725.00;;;19.14
75431;BMP280;64127;51.488;5.462;2023-07-31T04:11:47;100722.31;;;19.14
75431;BMP280;64127;51.488;5.462;2023-07-31T04:14:19;100725.00;;;19.10
75431;BMP280;64127;51.488;5.462;2023-07-31T04:16:51;100714.31;;;19.05
75431;BMP280;64127;51.488;5.462;2023-07-31T04:19:24;100709.13;;;19.39
75431;BMP280;64127;51.488;5.462;2023-07-31T04:21:56;100709.03;;;19.14
75431;BMP280;64127;51.488;5.462;2023-07-31T04:24:28;100699.28;;;19.09
75431;BMP280;64127;51.488;5.462;2023-07-31T04:27:00;100701.06;;;19.13
75431;BMP280;64127;51.488;5.462;2023-07-31T04:29:32;100702.84;;;19.12
75431;BMP280;64127;51.488;5.462;2023-07-31T04:32:04;100701.97;;;19.15
75431;BMP280;64127;51.488;5.462;2023-07-31T04:34:37;100669.13;;;19.01
75431;BMP280;64127;51.488;5.462;2023-07-31T04:37:09;100692.22;;;19.11
75431;BMP280;64127;51.488;5.462;2023-07-31T04:39:41;100694.88;;;19.09
75431;BMP280;64127;51.488;5.462;2023-07-31T04:42:13;100689.56;;;19.12
75431;BMP280;64127;51.488;5.462;2023-07-31T04:44:45;100687.75;;;19.11
75431;BMP280;64127;51.488;5.462;2023-07-31T04:47:17;100687.78;;;19.13
75431;BMP280;64127;51.488;5.462;2023-07-31T04:49:49;100683.34;;;19.15
75431;BMP280;64127;51.488;5.462;2023-07-31T04:52:21;100661.19;;;19.08
75431;BMP280;64127;51.488;5.462;2023-07-31T04:54:53;100673.63;;;19.18
75431;BMP280;64127;51.488;5.462;2023-07-31T04:57:25;100678.06;;;19.21
75431;BMP280;64127;51.488;5.462;2023-07-31T04:59:57;100664.75;;;19.18
75431;BMP280;64127;51.488;5.462;2023-07-31T05:02:29;100674.50;;;19.22
75431;BMP280;64127;51.488;5.462;2023-07-31T05:05:01;100673.66;;;19.26
75431;BMP280;64127;51.488;5.462;2023-07-31T05:07:33;100672.75;;;19.25
75431;BMP280;64127;51.488;5.462;2023-07-31T05:10:06;100667.44;;;19.25
75431;BMP280;64127;51.488;5.462;2023-07-31T05:12:38;100669.22;;;19.27
75431;BMP280;64127;51.488;5.462;2023-07-31T05:15:10;100660.38;;;19.24
75431;BMP280;64127;51.488;5.462;2023-07-31T05:17:42;100665.69;;;19.24
75431;BMP280;64127;51.488;5.462;2023-07-31T05:20:14;100661.22;;;19.22
75431;BMP280;64127;51.488;5.462;2023-07-31T05:22:47;100660.34;;;19.20
75431;BMP280;64127;51.488;5.462;2023-07-31T05:25:19;100650.56;;;19.11
75431;BMP280;64127;51.488;5.462;2023-07-31T05:27:51;100662.09;;;19.15
75431;BMP280;64127;51.488;5.462;2023-07-31T05:30:23;100667.41;;;19.18
75431;BMP280;64127;51.488;5.462;2023-07-31T05:32:55;100665.66;;;19.14
75431;BMP280;64127;51.488;5.462;2023-07-31T05:35:27;100668.31;;;19.14
75431;BMP280;64127;51.488;5.462;2023-07-31T05:37:59;100674.50;;;19.13
75431;BMP280;64127;51.488;5.462;2023-07-31T05:40:33;100659.44;;;19.10
75431;BMP280;64127;51.488;5.462;2023-07-31T05:43:05;100667.41;;;19.07
75431;BMP280;64127;51.488;5.462;2023-07-31T05:45:40;100677.09;;;18.99
75431;BMP280;64127;51.488;5.462;2023-07-31T05:48:12;100667.38;;;19.00
75431;BMP280;64127;51.488;5.462;2023-07-31T05:50:44;100655.84;;;18.99
75431;BMP280;64127;51.488;5.462;2023-07-31T05:53:16;100649.63;;;18.99
75431;BMP280;64127;51.488;5.462;2023-07-31T05:55:48;100655.84;;;18.96
75431;BMP280;64127;51.488;5.462;2023-07-31T05:58:20;100650.53;;;18.96
75431;BMP280;64127;51.488;5.462;2023-07-31T06:00:52;100641.66;;;18.96
75431;BMP280;64127;51.488;5.462;2023-07-31T06:03:24;100643.44;;;18.98
75431;BMP280;64127;51.488;5.462;2023-07-31T06:05:56;100643.44;;;19.00
75431;BMP280;64127;51.488;5.462;2023-07-31T06:08:28;100638.13;;;18.98
75431;BMP280;64127;51.488;5.462;2023-07-31T06:11:00;100643.44;;;18.98
75431;BMP280;64127;51.488;5.462;2023-07-31T06:13:32;100642.53;;;18.98
75431;BMP280;64127;51.488;5.462;2023-07-31T06:16:04;100637.22;;;18.95
75431;BMP280;64127;51.488;5.462;2023-07-31T06:18:37;100631.03;;;18.93
75431;BMP280;64127;51.488;5.462;2023-07-31T06:21:10;100635.47;;;18.94
75431;BMP280;64127;51.488;5.462;2023-07-31T06:23:42;100626.56;;;18.92
75431;BMP280;64127;51.488;5.462;2023-07-31T06:26:14;100623.91;;;18.89
75431;BMP280;64127;51.488;5.462;2023-07-31T06:28:46;100629.25;;;18.93
75431;BMP280;64127;51.488;5.462;2023-07-31T06:31:18;100622.16;;;18.92
75431;BMP280;64127;51.488;5.462;2023-07-31T06:33:54;100631.03;;;18.96
75431;BMP280;64127;51.488;5.462;2023-07-31T06:36:26;100614.22;;;18.97
75431;BMP280;64127;51.488;5.462;2023-07-31T06:38:58;100615.97;;;19.01
75431;BMP280;64127;51.488;5.462;2023-07-31T06:41:30;100587.59;;;18.91
75431;BMP280;64127;51.488;5.462;2023-07-31T06:44:02;100616.00;;;19.07
75431;BMP280;64127;51.488;5.462;2023-07-31T06:46:34;100608.91;;;19.06
75431;BMP280;64127;51.488;5.462;2023-07-31T06:49:06;100608.03;;;19.08
75431;BMP280;64127;51.488;5.462;2023-07-31T06:51:38;100603.59;;;19.06
75431;BMP280;64127;51.488;5.462;2023-07-31T06:54:10;100602.69;;;19.02
75431;BMP280;64127;51.488;5.462;2023-07-31T06:56:43;100581.44;;;18.93
75431;BMP280;64127;51.488;5.462;2023-07-31T06:59:15;100603.59;;;19.00
75431;BMP280;64127;51.488;5.462;2023-07-31T07:01:47;100607.09;;;18.97
75431;BMP280;64127;51.488;5.462;2023-07-31T07:04:19;100615.97;;;18.96
75431;BMP280;64127;51.488;5.462;2023-07-31T07:06:51;100606.22;;;18.95
75431;BMP280;64127;51.488;5.462;2023-07-31T07:09:23;100608.91;;;19.03
75431;BMP280;64127;51.488;5.462;2023-07-31T07:11:55;100596.50;;;19.02
75431;BMP280;64127;51.488;5.462;2023-07-31T07:14:27;100600.91;;;19.04
75431;BMP280;64127;51.488;5.462;2023-07-31T07:16:59;100582.34;;;19.00
75431;BMP280;64127;51.488;5.462;2023-07-31T07:19:31;100600.03;;;19.02
75431;BMP280;64127;51.488;5.462;2023-07-31T07:22:04;100587.66;;;19.00
75431;BMP280;64127;51.488;5.462;2023-07-31T07:24:36;100592.06;;;19.01
75431;BMP280;64127;51.488;5.462;2023-07-31T07:27:08;100577.88;;;18.96
75431;BMP280;64127;51.488;5.462;2023-07-31T07:29:40;100579.66;;;18.97
75431;BMP280;64127;51.488;5.462;2023-07-31T07:32:13;100584.09;;;19.01
75431;BMP280;64127;51.488;5.462;2023-07-31T07:34:47;100583.22;;;19.05
75431;BMP280;64127;51.488;5.462;2023-07-31T07:37:19;100592.97;;;19.03
75431;BMP280;64127;51.488;5.462;2023-07-31T07:39:51;100594.75;;;19.07
75431;BMP280;64127;51.488;5.462;2023-07-31T07:42:23;100590.31;;;19.03
75431;BMP280;64127;51.488;5.462;2023-07-31T07:44:55;100598.28;;;19.00
75431;BMP280;64127;51.488;5.462;2023-07-31T07:47:27;100585.00;;;19.00
75431;BMP280;64127;51.488;5.462;2023-07-31T07:50:00;100590.31;;;19.00
75431;BMP280;64127;51.488;5.462;2023-07-31T07:52:32;100589.41;;;19.01
75431;BMP280;64127;51.488;5.462;2023-07-31T07:55:04;100589.41;;;19.02
75431;BMP280;64127;51.488;5.462;2023-07-31T07:57:37;100580.56;;;19.02
75431;BMP280;64127;51.488;5.462;2023-07-31T08:00:09;100590.31;;;19.03
75431;BMP280;64127;51.488;5.462;2023-07-31T08:02:42;100584.09;;;19.01
75431;BMP280;64127;51.488;5.462;2023-07-31T08:05:14;100583.22;;;19.02
75431;BMP280;64127;51.488;5.462;2023-07-31T08:07:47;100586.75;;;19.02
75431;BMP280;64127;51.488;5.462;2023-07-31T08:10:19;100588.53;;;19.03
75431;BMP280;64127;51.488;5.462;2023-07-31T08:12:51;100582.34;;;19.03
75431;BMP280;64127;51.488;5.462;2023-07-31T08:15:23;100582.31;;;19.01
75431;BMP280;64127;51.488;5.462;2023-07-31T08:17:55;100579.69;;;19.03
75431;BMP280;64127;51.488;5.462;2023-07-31T08:20:27;100580.56;;;19.02
75431;BMP280;64127;51.488;5.462;2023-07-31T08:22:59;100579.69;;;19.00
75431;BMP280;64127;51.488;5.462;2023-07-31T08:25:38;100579.66;;;19.04
75431;BMP280;64127;51.488;5.462;2023-07-31T08:28:10;100579.66;;;19.04
75431;BMP280;64127;51.488;5.462;2023-07-31T08:30:42;100576.16;;;19.04
75431;BMP280;64127;51.488;5.462;2023-07-31T08:33:15;100586.75;;;19.01
75431;BMP280;64127;51.488;5.462;2023-07-31T08:35:47;100584.97;;;19.04
75431;BMP280;64127;51.488;5.462;2023-07-31T08:38:20;100584.13;;;19.07
75431;BMP280;64127;51.488;5.462;2023-07-31T08:40:52;100578.81;;;19.07
75431;BMP280;64127;51.488;5.462;2023-07-31T08:43:27;100575.28;;;19.11
75431;BMP280;64127;51.488;5.462;2023-07-31T08:46:00;100580.59;;;19.11
75431;BMP280;64127;51.488;5.462;2023-07-31T08:48:32;100585.88;;;19.09
75431;BMP280;64127;51.488;5.462;2023-07-31T08:51:05;100577.03;;;19.09
75431;BMP280;64127;51.488;5.462;2023-07-31T08:53:37;100575.28;;;19.11
75431;BMP280;64127;51.488;5.462;2023-07-31T08:56:13;100585.00;;;19.12
75431;BMP280;64127;51.488;5.462;2023-07-31T08:58:48;100564.59;;;19.05
75431;BMP280;64127;51.488;5.462;2023-07-31T09:01:21;100572.59;;;19.12
75431;BMP280;64127;51.488;5.462;2023-07-31T09:03:55;100573.50;;;19.13
75431;BMP280;64127;51.488;5.462;2023-07-31T09:06:30;100570.84;;;19.17
75431;BMP280;64127;51.488;5.462;2023-07-31T09:09:02;100574.41;;;19.24
75431;BMP280;64127;51.488;5.462;2023-07-31T09:11:35;100580.63;;;19.24
75431;BMP280;64127;51.488;5.462;2023-07-31T09:14:08;100538.06;;;19.11
75431;BMP280;64127;51.488;5.462;2023-07-31T09:16:55;100569.97;;;19.26
75431;BMP280;64127;51.488;5.462;2023-07-31T09:19:34;100565.53;;;19.28
75431;BMP280;64127;51.488;5.462;2023-07-31T09:22:08;100562.88;;;19.28
75431;BMP280;64127;51.488;5.462;2023-07-31T09:24:40;100564.66;;;19.32
75431;BMP280;64127;51.488;5.462;2023-07-31T09:27:12;100559.31;;;19.32
75431;BMP280;64127;51.488;5.462;2023-07-31T09:29:44;100562.00;;;19.37
75431;BMP280;64127;51.488;5.462;2023-07-31T09:32:17;100549.59;;;19.37
75431;BMP280;64127;51.488;5.462;2023-07-31T09:34:50;100548.72;;;19.46
75431;BMP280;64127;51.488;5.462;2023-07-31T09:37:22;100561.16;;;19.48
75431;BMP280;64127;51.488;5.462;2023-07-31T09:39:54;100546.06;;;19.53
75431;BMP280;64127;51.488;5.462;2023-07-31T09:42:30;100539.88;;;19.50
75431;BMP280;64127;51.488;5.462;2023-07-31T09:45:08;100544.31;;;19.49
75431;BMP280;64127;51.488;5.462;2023-07-31T09:47:47;100546.09;;;19.52
75431;BMP280;64127;51.488;5.462;2023-07-31T09:50:23;100537.19;;;19.59
75431;BMP280;64127;51.488;5.462;2023-07-31T09:52:55;100542.53;;;19.65
75431;BMP280;64127;51.488;5.462;2023-07-31T09:55:29;100543.44;;;19.65
75431;BMP280;64127;51.488;5.462;2023-07-31T09:58:08;100538.09;;;19.62
75431;BMP280;64127;51.488;5.462;2023-07-31T10:00:40;100538.09;;;19.71
75431;BMP280;64127;51.488;5.462;2023-07-31T10:03:14;100545.19;;;19.72
75431;BMP280;64127;51.488;5.462;2023-07-31T10:05:50;100541.63;;;19.78
75431;BMP280;64127;51.488;5.462;2023-07-31T10:08:30;100539.84;;;19.79
75431;BMP280;64127;51.488;5.462;2023-07-31T10:11:03;100541.63;;;19.84
75431;BMP280;64127;51.488;5.462;2023-07-31T10:13:36;100519.44;;;19.78
75431;BMP280;64127;51.488;5.462;2023-07-31T10:16:09;100530.97;;;19.86
75431;BMP280;64127;51.488;5.462;2023-07-31T10:18:43;100528.28;;;19.92
75431;BMP280;64127;51.488;5.462;2023-07-31T10:21:16;100516.78;;;19.93
75431;BMP280;64127;51.488;5.462;2023-07-31T10:23:50;100532.72;;;20.02
75431;BMP280;64127;51.488;5.462;2023-07-31T10:26:24;100525.59;;;20.01
75431;BMP280;64127;51.488;5.462;2023-07-31T10:28:58;100529.16;;;20.03
75431;BMP280;64127;51.488;5.462;2023-07-31T10:31:31;100536.25;;;20.04
75431;BMP280;64127;51.488;5.462;2023-07-31T10:34:04;100536.25;;;20.04
75431;BMP280;64127;51.488;5.462;2023-07-31T10:36:36;100500.81;;;19.85
75431;BMP280;64127;51.488;5.462;2023-07-31T10:39:36;100538.03;;;19.99
75431;BMP280;64127;51.488;5.462;2023-07-31T10:42:13;100530.94;;;20.01
75431;BMP280;64127;51.488;5.462;2023-07-31T10:44:47;100527.34;;;20.08
75431;BMP280;64127;51.488;5.462;2023-07-31T10:47:19;100539.78;;;20.12
75431;BMP280;64127;51.488;5.462;2023-07-31T10:49:51;100536.22;;;20.13
75431;BMP280;64127;51.488;5.462;2023-07-31T10:52:23;100538.00;;;20.17
75431;BMP280;64127;51.488;5.462;2023-07-31T10:55:27;100539.75;;;20.15
75431;BMP280;64127;51.488;5.462;2023-07-31T11:00:44;100516.69;;;20.17
75431;BMP280;64127;51.488;5.462;2023-07-31T11:03:19;100530.88;;;20.22
75431;BMP280;64127;51.488;5.462;2023-07-31T11:06:01;100510.44;;;20.24
75431;BMP280;64127;51.488;5.462;2023-07-31T11:08:44;100514.91;;;20.34
75431;BMP280;64127;51.488;5.462;2023-07-31T11:11:19;100521.97;;;20.44
75431;BMP280;64127;51.488;5.462;2023-07-31T11:13:53;100521.91;;;20.53
75431;BMP280;64127;51.488;5.462;2023-07-31T11:16:26;100511.25;;;20.53
75431;BMP280;64127;51.488;5.462;2023-07-31T11:18:58;100505.00;;;20.57
75431;BMP280;64127;51.488;5.462;2023-07-31T11:21:30;100514.78;;;20.55
75431;BMP280;64127;51.488;5.462;2023-07-31T11:24:02;100506.78;;;20.55
75431;BMP280;64127;51.488;5.462;2023-07-31T11:26:34;100507.69;;;20.57
75431;BMP280;64127;51.488;5.462;2023-07-31T11:29:12;100511.19;;;20.64
75431;BMP280;64127;51.488;5.462;2023-07-31T11:31:46;100516.50;;;20.65
75431;BMP280;64127;51.488;5.462;2023-07-31T11:34:18;100497.81;;;20.74
75431;BMP280;64127;51.488;5.462;2023-07-31T11:36:54;100499.53;;;20.80
75431;BMP280;64127;51.488;5.462;2023-07-31T11:39:29;100502.16;;;20.88
75431;BMP280;64127;51.488;5.462;2023-07-31T11:42:02;100497.69;;;20.90
75431;BMP280;64127;51.488;5.462;2023-07-31T11:44:40;100503.00;;;20.93
75431;BMP280;64127;51.488;5.462;2023-07-31T11:47:13;100501.19;;;20.96
75431;BMP280;64127;51.488;5.462;2023-07-31T11:49:45;100502.13;;;20.94
75431;BMP280;64127;51.488;5.462;2023-07-31T11:52:18;100494.16;;;20.88
75431;BMP280;64127;51.488;5.462;2023-07-31T11:54:52;100489.78;;;20.82
75431;BMP280;64127;51.488;5.462;2023-07-31T11:57:25;100492.41;;;20.85
75431;BMP280;64127;51.488;5.462;2023-07-31T11:59:57;100490.66;;;20.81
75431;BMP280;64127;51.488;5.462;2023-07-31T12:02:30;100468.56;;;20.62
75431;BMP280;64127;51.488;5.462;2023-07-31T12:05:02;100493.34;;;20.77
75431;BMP280;64127;51.488;5.462;2023-07-31T12:07:52;100496.94;;;20.69
75431;BMP280;64127;51.488;5.462;2023-07-31T12:10:32;100493.44;;;20.64
75431;BMP280;64127;51.488;5.462;2023-07-31T12:13:22;100493.44;;;20.64
75431;BMP280;64127;51.488;5.462;2023-07-31T12:16:00;100488.09;;;20.63
75431;BMP280;64127;51.488;5.462;2023-07-31T12:18:36;100490.78;;;20.61
75431;BMP280;64127;51.488;5.462;2023-07-31T12:21:09;100497.00;;;20.60
75431;BMP280;64127;51.488;5.462;2023-07-31T12:23:44;100489.88;;;20.59
75431;BMP280;64127;51.488;5.462;2023-07-31T12:26:17;100474.66;;;20.81
75431;BMP280;64127;51.488;5.462;2023-07-31T12:28:50;100465.88;;;20.65
75431;BMP280;64127;51.488;5.462;2023-07-31T12:31:22;100457.94;;;20.58
75431;BMP280;64127;51.488;5.462;2023-07-31T12:33:55;100465.88;;;20.68
75431;BMP280;64127;51.488;5.462;2023-07-31T12:36:28;100463.22;;;20.68
75431;BMP280;64127;51.488;5.462;2023-07-31T12:39:02;100475.59;;;20.72
75431;BMP280;64127;51.488;5.462;2023-07-31T12:41:35;100462.25;;;20.75
75431;BMP280;64127;51.488;5.462;2023-07-31T12:44:06;100473.81;;;20.74
75431;BMP280;64127;51.488;5.462;2023-07-31T12:46:39;100456.06;;;20.73
75431;BMP280;64127;51.488;5.462;2023-07-31T12:49:11;100459.59;;;20.72
75431;BMP280;64127;51.488;5.462;2023-07-31T12:51:44;100450.72;;;20.73
75431;BMP280;64127;51.488;5.462;2023-07-31T12:54:16;100440.94;;;20.74
75431;BMP280;64127;51.488;5.462;2023-07-31T12:56:48;100430.28;;;20.79
75431;BMP280;64127;51.488;5.462;2023-07-31T12:59:20;100424.91;;;20.80
75431;BMP280;64127;51.488;5.462;2023-07-31T13:01:52;100426.63;;;20.86
75431;BMP280;64127;51.488;5.462;2023-07-31T13:04:24;100431.06;;;20.90
75431;BMP280;64127;51.488;5.462;2023-07-31T13:06:56;100431.06;;;20.90
75431;BMP280;64127;51.488;5.462;2023-07-31T13:09:28;100425.72;;;20.90
75431;BMP280;64127;51.488;5.462;2023-07-31T13:12:00;100427.47;;;20.94
75431;BMP280;64127;51.488;5.462;2023-07-31T13:14:32;100432.75;;;21.00
75431;BMP280;64127;51.488;5.462;2023-07-31T13:17:04;100428.34;;;20.99
75431;BMP280;64127;51.488;5.462;2023-07-31T13:19:36;100431.00;;;20.99
75431;BMP280;64127;51.488;5.462;2023-07-31T13:22:08;100432.75;;;21.01
75431;BMP280;64127;51.488;5.462;2023-07-31T13:24:41;100430.91;;;21.08
75431;BMP280;64127;51.488;5.462;2023-07-31T13:27:13;100413.13;;;21.10
75431;BMP280;64127;51.488;5.462;2023-07-31T13:29:48;100419.34;;;21.09
75431;BMP280;64127;51.488;5.462;2023-07-31T13:32:21;100424.69;;;21.07
75431;BMP280;64127;51.488;5.462;2023-07-31T13:34:53;100406.91;;;21.06
75431;BMP280;64127;51.488;5.462;2023-07-31T13:37:25;100398.06;;;21.06
75431;BMP280;64127;51.488;5.462;2023-07-31T13:39:57;100404.28;;;21.05
75431;BMP280;64127;51.488;5.462;2023-07-31T13:42:29;100401.63;;;21.02
75431;BMP280;64127;51.488;5.462;2023-07-31T13:45:01;100404.38;;;20.96
75431;BMP280;64127;51.488;5.462;2023-07-31T13:47:38;100407.91;;;20.98
75431;BMP280;64127;51.488;5.462;2023-07-31T13:50:10;100407.91;;;20.95
75431;BMP280;64127;51.488;5.462;2023-07-31T13:52:42;100414.16;;;20.92
75431;BMP280;64127;51.488;5.462;2023-07-31T13:55:14;100412.38;;;20.91
75431;BMP280;64127;51.488;5.462;2023-07-31T13:57:46;100414.16;;;20.92
75431;BMP280;64127;51.488;5.462;2023-07-31T14:00:18;100404.44;;;20.85
75431;BMP280;64127;51.488;5.462;2023-07-31T14:02:50;100401.81;;;20.79
75431;BMP280;64127;51.488;5.462;2023-07-31T14:05:23;100401.88;;;20.74
75431;BMP280;64127;51.488;5.462;2023-07-31T14:07:55;100381.53;;;20.58
75431;BMP280;64127;51.488;5.462;2023-07-31T14:10:27;100415.22;;;20.71
75431;BMP280;64127;51.488;5.462;2023-07-31T14:12:59;100401.03;;;20.66
75431;BMP280;64127;51.488;5.462;2023-07-31T14:15:31;100413.41;;;20.73
75431;BMP280;64127;51.488;5.462;2023-07-31T14:18:04;100405.44;;;20.69
75431;BMP280;64127;51.488;5.462;2023-07-31T14:20:36;100392.19;;;20.61
75431;BMP280;64127;51.488;5.462;2023-07-31T14:23:08;100394.84;;;20.64
75431;BMP280;64127;51.488;5.462;2023-07-31T14:25:40;100393.03;;;20.66
75431;BMP280;64127;51.488;5.462;2023-07-31T14:28:12;100377.09;;;20.59
75431;BMP280;64127;51.488;5.462;2023-07-31T14:30:44;100385.03;;;20.66
75431;BMP280;64127;51.488;5.462;2023-07-31T14:33:16;100392.16;;;20.67
75431;BMP280;64127;51.488;5.462;2023-07-31T14:35:48;100397.44;;;20.70
75431;BMP280;64127;51.488;5.462;2023-07-31T14:38:20;100389.44;;;20.73
75431;BMP280;64127;51.488;5.462;2023-07-31T14:40:53;100378.78;;;20.72
75431;BMP280;64127;51.488;5.462;2023-07-31T14:43:25;100388.53;;;20.74
75431;BMP280;64127;51.488;5.462;2023-07-31T14:45:57;100380.53;;;20.73
75431;BMP280;64127;51.488;5.462;2023-07-31T14:48:31;100366.34;;;20.72